Adaven, Nevada
Current Conditions -  °F | °C
As of 6:56 AM on Saturday 20 Dec 2014 (Local Time) from KTPH Reporting Station
Overcast Overcast  
Wind Chill: 24°   Ceiling: 7000
Heat Index: 31°   Visibility: 10mi
Dew Point: 28°   Wind: 7mph
Humidity: 89%   Direction: 360°N
Pressure: 30.15"   Gusts: NA
Location:  38.13°N, 115.6°W
Report Text: KTPH 201456Z AUTO 36006KT 10SM OVC070 M01/M02 A3015 RMK AO2 SLP228 T10061022 55001
Loading
Personal Weather Stations






























Interactive Weather Map New forecast layout! Learn more

10-Day Weather Forecast

Advertisements
Track Severe Weather on mobile